createdAt,value
2022-10-04T00:00:55.762Z,99.993896
2022-10-04T00:02:05.528Z,99.993896
2022-10-04T00:03:15.176Z,99.993896
2022-10-04T00:04:23.879Z,99.993896
2022-10-04T00:05:32.583Z,99.993896
2022-10-04T00:06:42.259Z,99.993896
2022-10-04T00:07:49.958Z,99.993896
2022-10-04T00:08:59.621Z,99.993896
2022-10-04T00:10:09.302Z,99.993896
2022-10-04T00:11:17.980Z,99.993896
2022-10-04T00:12:26.714Z,99.993896
2022-10-04T00:13:35.441Z,99.993896
2022-10-04T00:14:45.083Z,99.993896
2022-10-04T00:15:54.806Z,99.993896
2022-10-04T00:17:03.492Z,99.993896
2022-10-04T00:18:12.180Z,99.993896
2022-10-04T00:19:21.854Z,99.993896
2022-10-04T00:20:32.531Z,99.993896
2022-10-04T00:21:42.483Z,99.993896
2022-10-04T00:22:51.012Z,99.993896
2022-10-04T00:23:59.673Z,99.993896
2022-10-04T00:25:09.367Z,99.993896
2022-10-04T00:26:18.027Z,99.993896
2022-10-04T00:27:25.699Z,99.993896
2022-10-04T00:28:35.504Z,99.993896
2022-10-04T00:29:44.146Z,99.993896
2022-10-04T00:30:52.812Z,99.993896
2022-10-04T00:32:01.505Z,99.993896
2022-10-04T00:33:11.171Z,99.993896
2022-10-04T00:34:20.866Z,99.993896
2022-10-04T00:35:29.518Z,99.993896
2022-10-04T00:36:38.241Z,99.993896
2022-10-04T00:37:47.866Z,99.993896
2022-10-04T00:38:57.545Z,99.993896
2022-10-04T00:40:06.247Z,99.993896
2022-10-04T00:41:14.904Z,99.993896
2022-10-04T00:42:24.597Z,99.993896
2022-10-04T00:43:34.315Z,99.993896
2022-10-04T00:44:40.978Z,99.993896
2022-10-04T00:45:48.802Z,99.993896
2022-10-04T00:46:58.401Z,99.993896
2022-10-04T00:48:07.069Z,99.993896
2022-10-04T00:49:16.755Z,99.993896
2022-10-04T00:50:25.421Z,99.993896
2022-10-04T00:51:35.130Z,99.993896
2022-10-04T00:52:44.811Z,99.993896
2022-10-04T00:53:52.474Z,99.993896
2022-10-04T00:55:01.163Z,99.993896
2022-10-04T00:56:10.831Z,99.993896
2022-10-04T00:57:19.544Z,99.993896
2022-10-04T00:58:28.217Z,99.993896
2022-10-04T00:59:37.884Z,99.993896
2022-10-04T01:00:47.621Z,99.993896
2022-10-04T01:01:57.309Z,99.993896
2022-10-04T01:03:05.928Z,99.993896
2022-10-04T01:04:13.594Z,99.993896
2022-10-04T01:05:23.308Z,99.993896
2022-10-04T01:06:32.982Z,99.993896
2022-10-04T01:07:41.646Z,99.993896
2022-10-04T01:08:50.349Z,99.993896
2022-10-04T01:09:59.013Z,99.993896
2022-10-04T01:11:08.709Z,99.993896
2022-10-04T01:12:16.371Z,99.993896
2022-10-04T01:13:25.040Z,99.993896
2022-10-04T01:14:34.739Z,99.993896
2022-10-04T01:15:43.490Z,99.993896
2022-10-04T01:16:52.098Z,99.993896
2022-10-04T01:18:02.022Z,99.993896
2022-10-04T01:19:09.414Z,99.993896
2022-10-04T01:20:19.111Z,99.993896
2022-10-04T01:21:27.810Z,99.993896
2022-10-04T01:22:36.477Z,99.993896
2022-10-04T01:23:46.164Z,99.993896
2022-10-04T01:24:54.823Z,99.993896
2022-10-04T01:26:04.576Z,99.993896
2022-10-04T01:27:13.261Z,99.993896
2022-10-04T01:28:22.043Z,99.993896
2022-10-04T01:29:31.716Z,99.993896
2022-10-04T01:30:41.412Z,99.993896
2022-10-04T01:31:51.214Z,99.993896
2022-10-04T01:32:58.820Z,99.993896
2022-10-04T01:34:07.522Z,99.993896
2022-10-04T01:35:17.171Z,99.993896
2022-10-04T01:36:25.856Z,99.993896
2022-10-04T01:37:35.579Z,99.993896
2022-10-04T01:38:44.253Z,99.993896
2022-10-04T01:39:53.924Z,99.993896
2022-10-04T01:41:03.604Z,99.993896
2022-10-04T01:42:12.299Z,99.993896
2022-10-04T01:43:20.984Z,99.993896
2022-10-04T01:44:30.672Z,99.993896
2022-10-04T01:45:39.345Z,99.993896
2022-10-04T01:46:48.085Z,99.993896
2022-10-04T01:47:57.708Z,99.993896
2022-10-04T01:49:06.493Z,99.993896
2022-10-04T01:50:16.199Z,99.993896
2022-10-04T01:51:24.833Z,99.993896
2022-10-04T01:52:33.505Z,99.993896
2022-10-04T01:53:43.172Z,99.993896
2022-10-04T01:54:52.878Z,99.993896
2022-10-04T01:56:01.559Z,99.993896
2022-10-04T01:57:10.244Z,99.993896
2022-10-04T01:58:19.928Z,99.993896
2022-10-04T01:59:29.601Z,99.993896
2022-10-04T02:00:37.271Z,99.993896
2022-10-04T02:01:45.286Z,99.993896
2022-10-04T02:02:54.619Z,99.993896
2022-10-04T02:04:04.296Z,99.993896
2022-10-04T02:05:12.956Z,99.993896
2022-10-04T02:06:22.698Z,99.993896
2022-10-04T02:07:31.351Z,99.993896
2022-10-04T02:08:41.047Z,99.993896
2022-10-04T02:09:48.699Z,99.993896
2022-10-04T02:10:56.395Z,99.993896
2022-10-04T02:12:05.074Z,99.993896
2022-10-04T02:13:14.754Z,99.993896
2022-10-04T02:14:23.411Z,99.993896
2022-10-04T02:15:33.075Z,99.993896
2022-10-04T02:16:40.770Z,99.993896
2022-10-04T02:17:50.548Z,99.993896
2022-10-04T02:18:59.240Z,99.993896
2022-10-04T02:20:07.921Z,99.993896
2022-10-04T02:21:17.588Z,99.993896
2022-10-04T02:22:26.271Z,99.993896
2022-10-04T02:23:34.941Z,99.993896
2022-10-04T02:24:44.608Z,99.993896
2022-10-04T02:25:53.306Z,99.993896
2022-10-04T02:27:02.981Z,99.993896
2022-10-04T02:28:10.737Z,99.993896
2022-10-04T02:29:18.437Z,99.993896
2022-10-04T02:30:28.115Z,99.993896
2022-10-04T02:31:36.800Z,99.993896
2022-10-04T02:32:46.457Z,99.993896
2022-10-04T02:33:56.171Z,99.993896
2022-10-04T02:35:04.870Z,99.993896
2022-10-04T02:36:14.578Z,99.993896
2022-10-04T02:37:22.245Z,99.993896
2022-10-04T02:38:31.991Z,99.993896
2022-10-04T02:39:41.588Z,99.993896
2022-10-04T02:40:51.273Z,99.993896
2022-10-04T02:42:00.949Z,99.993896
2022-10-04T02:43:09.609Z,99.993896
2022-10-04T02:44:18.266Z,99.993896
2022-10-04T02:45:27.929Z,99.993896
2022-10-04T02:46:35.692Z,99.993896
2022-10-04T02:47:44.274Z,99.993896
2022-10-04T02:48:53.945Z,99.993896
2022-10-04T02:50:02.651Z,99.993896
2022-10-04T02:51:11.341Z,99.993896
2022-10-04T02:52:20.066Z,99.993896
2022-10-04T02:53:28.708Z,99.993896
2022-10-04T02:54:38.434Z,99.993896
2022-10-04T02:55:48.089Z,99.993896
2022-10-04T02:56:56.776Z,99.993896
2022-10-04T02:58:06.481Z,99.993896
2022-10-04T02:59:15.165Z,99.993896
2022-10-04T03:00:24.844Z,99.993896
2022-10-04T03:01:34.513Z,99.993896
2022-10-04T03:02:43.206Z,99.993896
2022-10-04T03:03:52.886Z,99.993896
2022-10-04T03:05:01.602Z,99.993896
2022-10-04T03:06:10.312Z,99.993896
2022-10-04T03:07:19.992Z,99.993896
2022-10-04T03:08:28.664Z,99.993896
2022-10-04T03:09:37.372Z,99.993896
2022-10-04T03:10:46.063Z,99.993896
2022-10-04T03:11:55.701Z,99.993896
2022-10-04T03:13:05.378Z,99.993896
2022-10-04T03:14:13.036Z,99.993896
2022-10-04T03:15:20.714Z,99.993896
2022-10-04T03:16:30.417Z,99.993896
2022-10-04T03:17:39.093Z,99.993896
2022-10-04T03:18:47.762Z,99.993896
2022-10-04T03:19:56.426Z,99.993896
2022-10-04T03:21:05.139Z,99.993896
2022-10-04T03:22:14.806Z,99.993896
2022-10-04T03:23:23.507Z,99.993896
2022-10-04T03:24:32.212Z,99.993896
2022-10-04T03:25:41.859Z,99.993896
2022-10-04T03:26:49.547Z,99.993896
2022-10-04T03:27:59.249Z,99.993896
2022-10-04T03:29:08.859Z,99.993896
2022-10-04T03:30:18.525Z,99.993896
2022-10-04T03:31:28.312Z,99.993896
2022-10-04T03:32:36.971Z,99.993896
2022-10-04T03:33:46.660Z,99.993896
2022-10-04T03:34:54.322Z,99.993896
2022-10-04T03:36:01.995Z,99.993896
2022-10-04T03:37:11.668Z,99.993896
2022-10-04T03:38:20.414Z,99.993896
2022-10-04T03:39:29.092Z,99.993896
2022-10-04T03:40:37.780Z,99.993896
2022-10-04T03:41:46.462Z,99.993896
2022-10-04T03:42:57.145Z,99.993896
2022-10-04T03:44:05.832Z,99.993896
2022-10-04T03:45:13.504Z,99.993896
2022-10-04T03:46:23.268Z,99.993896
2022-10-04T03:47:32.943Z,99.993896
2022-10-04T03:48:41.630Z,99.993896
2022-10-04T03:49:51.083Z,99.993896
2022-10-04T03:50:58.961Z,99.993896
2022-10-04T03:52:08.648Z,99.993896
2022-10-04T03:53:17.301Z,99.993896
2022-10-04T03:54:25.997Z,99.993896
2022-10-04T03:55:35.824Z,99.993896
2022-10-04T03:56:44.470Z,99.993896
2022-10-04T03:57:53.167Z,99.993896
2022-10-04T03:59:01.850Z,99.993896
2022-10-04T04:00:10.506Z,99.993896
2022-10-04T04:01:20.310Z,99.993896
2022-10-04T04:02:27.964Z,99.993896
2022-10-04T04:03:36.574Z,99.993896
2022-10-04T04:04:46.291Z,99.993896
2022-10-04T04:05:54.945Z,99.993896
2022-10-04T04:07:02.678Z,99.993896
2022-10-04T04:08:12.386Z,99.993896
2022-10-04T04:09:22.048Z,99.993896
2022-10-04T04:10:30.709Z,99.993896
2022-10-04T04:11:38.459Z,99.993896
2022-10-04T04:12:47.165Z,99.993896
2022-10-04T04:13:56.855Z,99.993896
2022-10-04T04:15:07.551Z,99.993896
2022-10-04T04:16:16.302Z,99.993896
2022-10-04T04:17:25.937Z,99.993896
2022-10-04T04:18:35.662Z,99.993896
2022-10-04T04:19:45.370Z,99.993896
2022-10-04T04:20:53.034Z,99.993896
2022-10-04T04:22:01.710Z,99.993896
2022-10-04T04:23:11.375Z,99.993896
2022-10-04T04:24:20.076Z,99.993896
2022-10-04T04:25:29.785Z,99.993896
2022-10-04T04:26:40.507Z,99.993896
2022-10-04T04:27:50.287Z,99.993896
2022-10-04T04:28:59.868Z,99.993896
2022-10-04T04:30:08.562Z,99.993896
2022-10-04T04:31:16.284Z,99.993896
2022-10-04T04:32:25.948Z,99.993896
2022-10-04T04:33:34.613Z,99.993896
2022-10-04T04:34:44.444Z,99.993896
2022-10-04T04:35:53.278Z,99.993896
2022-10-04T04:37:01.958Z,99.993896
2022-10-04T04:38:10.639Z,99.993896
2022-10-04T04:39:18.335Z,99.993896
2022-10-04T04:40:27.009Z,99.993896
2022-10-04T04:41:36.779Z,99.993896
2022-10-04T04:42:46.479Z,99.993896
2022-10-04T04:43:55.207Z,99.993896
2022-10-04T04:45:04.885Z,99.993896
2022-10-04T04:46:26.966Z,99.993896
2022-10-04T04:47:25.338Z,99.993896
2022-10-04T04:48:35.028Z,99.993896
2022-10-04T04:49:47.877Z,99.993896
2022-10-04T04:51:00.892Z,99.993896
2022-10-04T04:52:11.847Z,99.993896
2022-10-04T04:53:20.540Z,99.993896
2022-10-04T04:54:29.247Z,99.993896
2022-10-04T04:55:56.663Z,99.993896
2022-10-04T04:56:49.602Z,99.993896
2022-10-04T04:57:58.284Z,99.993896
2022-10-04T04:59:07.005Z,99.993896
2022-10-04T05:00:16.710Z,99.993896
2022-10-04T05:01:25.448Z,99.993896
2022-10-04T05:02:34.179Z,99.993896
2022-10-04T05:03:42.916Z,99.993896
2022-10-04T05:04:51.620Z,99.993896
2022-10-04T05:06:01.317Z,99.993896
2022-10-04T05:07:09.024Z,99.993896
2022-10-04T05:08:16.756Z,99.993896
2022-10-04T05:09:26.458Z,99.993896
2022-10-04T05:10:35.159Z,99.993896
2022-10-04T05:11:44.027Z,99.993896
2022-10-04T05:12:52.578Z,99.993896
2022-10-04T05:14:01.257Z,99.993896
2022-10-04T05:15:11.151Z,99.993896
2022-10-04T05:16:18.730Z,99.993896
2022-10-04T05:17:26.401Z,99.993896
2022-10-04T05:18:36.124Z,99.993896
2022-10-04T05:19:44.786Z,99.993896
2022-10-04T05:20:54.501Z,99.993896
2022-10-04T05:22:02.343Z,99.993896
2022-10-04T05:23:12.127Z,99.993896
2022-10-04T05:24:21.864Z,99.993896
2022-10-04T05:25:30.570Z,99.993896
2022-10-04T05:26:40.303Z,99.993896
2022-10-04T05:27:49.043Z,99.993896
2022-10-04T05:28:56.733Z,99.993896
2022-10-04T05:30:06.429Z,99.993896
2022-10-04T05:31:15.259Z,99.993896
2022-10-04T05:32:23.893Z,99.993896
2022-10-04T05:33:33.923Z,99.993896
2022-10-04T05:34:42.388Z,99.993896
2022-10-04T05:35:52.105Z,99.993896
2022-10-04T05:37:00.797Z,99.993896
2022-10-04T05:38:08.473Z,99.993896
2022-10-04T05:39:18.317Z,99.993896
2022-10-04T05:40:27.000Z,99.993896
2022-10-04T05:41:35.695Z,99.993896
2022-10-04T05:42:45.666Z,99.993896
2022-10-04T05:43:55.107Z,99.993896
2022-10-04T05:45:04.868Z,99.993896
2022-10-04T05:46:12.580Z,99.993896
2022-10-04T05:47:22.365Z,99.993896
2022-10-04T05:48:32.042Z,99.993896
2022-10-04T05:49:40.718Z,99.993896
2022-10-04T05:50:50.570Z,99.993896
2022-10-04T05:52:00.328Z,99.993896
2022-10-04T05:53:09.003Z,99.993896
2022-10-04T05:54:18.744Z,99.993896
2022-10-04T05:55:26.413Z,99.993896
2022-10-04T05:56:34.114Z,99.993896
2022-10-04T05:57:43.900Z,99.993896
2022-10-04T05:58:53.677Z,99.993896
2022-10-04T06:00:04.700Z,99.993896
2022-10-04T06:01:13.175Z,99.993896
2022-10-04T06:02:23.029Z,99.993896
2022-10-04T06:03:32.650Z,99.993896
2022-10-04T06:04:39.335Z,99.993896
2022-10-04T06:05:47.086Z,99.993896
2022-10-04T06:06:56.833Z,99.993896
2022-10-04T06:08:06.497Z,99.993896
2022-10-04T06:09:16.173Z,99.993896
2022-10-04T06:10:24.851Z,99.993896
2022-10-04T06:11:33.527Z,99.993896
2022-10-04T06:12:44.492Z,99.993896
2022-10-04T06:13:51.943Z,99.993896
2022-10-04T06:14:59.611Z,99.993896
2022-10-04T06:16:08.276Z,99.993896
2022-10-04T06:17:17.964Z,99.993896
2022-10-04T06:18:26.625Z,99.993896
2022-10-04T06:19:35.314Z,99.993896
2022-10-04T06:20:43.992Z,99.993896
2022-10-04T06:21:53.701Z,99.993896
2022-10-04T06:23:01.382Z,99.993896
2022-10-04T06:24:10.066Z,99.993896
2022-10-04T06:25:19.775Z,99.993896
2022-10-04T06:26:29.475Z,99.993896
2022-10-04T06:27:38.161Z,99.993896
2022-10-04T06:28:46.830Z,99.993896
2022-10-04T06:29:55.544Z,99.993896
2022-10-04T06:31:05.304Z,99.993896
2022-10-04T06:32:13.932Z,99.993896
2022-10-04T06:33:21.622Z,99.993896
2022-10-04T06:34:31.304Z,99.993896
2022-10-04T06:35:39.963Z,99.993896
2022-10-04T06:36:48.732Z,99.993896
2022-10-04T06:37:58.412Z,99.993896
2022-10-04T06:39:07.114Z,99.993896
2022-10-04T06:40:16.774Z,99.993896
2022-10-04T06:41:24.459Z,99.993896
2022-10-04T06:42:33.167Z,99.993896
2022-10-04T06:43:42.844Z,99.993896
2022-10-04T06:44:51.509Z,99.993896
2022-10-04T06:46:00.258Z,99.993896
2022-10-04T06:47:08.845Z,99.993896
2022-10-04T06:48:17.525Z,99.993896
2022-10-04T06:49:27.208Z,99.993896
2022-10-04T06:50:36.884Z,99.993896
2022-10-04T06:51:45.762Z,99.993896
2022-10-04T06:52:55.246Z,99.993896
2022-10-04T06:54:03.925Z,99.993896
2022-10-04T06:55:11.646Z,99.993896
2022-10-04T06:56:21.318Z,99.993896
2022-10-04T06:57:30.029Z,99.993896
2022-10-04T06:58:39.705Z,99.993896
2022-10-04T06:59:48.480Z,99.993896
2022-10-04T07:00:58.261Z,99.993896
2022-10-04T07:02:07.900Z,99.993896
2022-10-04T07:03:16.510Z,99.993896
2022-10-04T07:04:25.214Z,99.993896
2022-10-04T07:05:34.044Z,99.993896
2022-10-04T07:06:42.704Z,99.993896
2022-10-04T07:07:52.377Z,99.993896
2022-10-04T07:09:00.051Z,99.993896
2022-10-04T07:10:08.724Z,99.993896
2022-10-04T07:11:17.478Z,99.993896
2022-10-04T07:12:26.107Z,99.993896
2022-10-04T07:13:35.787Z,99.993896
2022-10-04T07:14:44.442Z,99.993896
2022-10-04T07:15:54.208Z,99.993896
2022-10-04T07:17:03.867Z,99.993896
2022-10-04T07:18:11.551Z,99.993896
2022-10-04T07:19:19.217Z,99.993896
2022-10-04T07:20:28.924Z,99.993896
2022-10-04T07:21:39.625Z,99.993896
2022-10-04T07:22:50.256Z,99.993896
2022-10-04T07:23:58.952Z,99.993896
2022-10-04T07:25:07.648Z,99.993896
2022-10-04T07:26:16.327Z,99.945068
2022-10-04T07:27:26.014Z,99.694824
2022-10-04T07:28:35.775Z,99.591064
2022-10-04T07:29:44.422Z,99.591064
2022-10-04T07:30:54.184Z,99.542236
2022-10-04T07:32:03.820Z,99.291992
2022-10-04T07:33:12.484Z,99.188232
2022-10-04T07:34:22.211Z,98.632812
2022-10-04T07:35:30.885Z,98.223877
2022-10-04T07:36:40.571Z,97.869873
2022-10-04T07:37:50.256Z,97.210693
2022-10-04T07:38:57.925Z,96.392822
2022-10-04T07:40:06.611Z,95.776367
2022-10-04T07:41:16.317Z,95.263672
2022-10-04T07:42:24.980Z,96.081543
2022-10-04T07:43:33.689Z,96.655273
2022-10-04T07:44:43.367Z,96.856689
2022-10-04T07:45:52.183Z,95.892334
2022-10-04T07:47:01.883Z,95.703125
2022-10-04T07:48:10.581Z,94.067383
2022-10-04T07:49:20.258Z,92.230225
2022-10-04T07:50:29.946Z,92.327881
2022-10-04T07:51:38.635Z,92.327881
2022-10-04T07:52:47.343Z,92.126465
2022-10-04T07:53:56.054Z,92.327881
2022-10-04T07:55:04.728Z,91.876221
2022-10-04T07:56:14.417Z,92.547607
2022-10-04T07:57:23.122Z,92.608643
2022-10-04T07:58:30.808Z,90.673828
2022-10-04T07:59:40.569Z,90.118408
2022-10-04T08:00:49.213Z,90.319824
2022-10-04T08:01:58.915Z,89.709473
2022-10-04T08:03:06.641Z,89.916992
2022-10-04T08:04:15.249Z,89.813232
2022-10-04T08:05:24.996Z,89.916992
2022-10-04T08:06:32.697Z,89.569092
2022-10-04T08:07:41.369Z,90.380859
2022-10-04T08:08:51.142Z,90.484619
2022-10-04T08:10:00.842Z,89.361572
2022-10-04T08:11:09.524Z,89.465332
2022-10-04T08:12:19.206Z,89.874268
2022-10-04T08:13:27.862Z,90.179443
2022-10-04T08:14:37.606Z,90.686035
2022-10-04T08:15:45.450Z,90.545654
2022-10-04T08:16:53.987Z,90.643311
2022-10-04T08:18:03.785Z,89.526367
2022-10-04T08:19:13.498Z,89.587402
2022-10-04T08:20:23.205Z,88.769531
2022-10-04T08:21:31.901Z,88.769531
2022-10-04T08:22:40.597Z,88.62915
2022-10-04T08:23:50.265Z,87.506104
2022-10-04T08:24:57.964Z,87.506104
2022-10-04T08:26:05.646Z,87.200928
2022-10-04T08:27:15.318Z,88.17749
2022-10-04T08:28:24.068Z,87.322998
2022-10-04T08:29:32.697Z,86.37085
2022-10-04T08:30:41.458Z,84.802246
2022-10-04T08:31:51.294Z,85.150146
2022-10-04T08:33:00.847Z,85.919189
2022-10-04T08:34:08.560Z,85.272217
2022-10-04T08:35:16.228Z,84.625244
2022-10-04T08:36:25.908Z,83.770752
2022-10-04T08:37:35.634Z,82.049561
2022-10-04T08:38:44.310Z,82.757568
2022-10-04T08:39:52.987Z,83.325195
2022-10-04T08:41:01.653Z,82.415771
2022-10-04T08:42:11.366Z,82.37915
2022-10-04T08:43:20.072Z,81.829834
2022-10-04T08:44:28.713Z,81.524658
2022-10-04T08:45:38.404Z,81.225586
2022-10-04T08:46:48.355Z,80.175781
2022-10-04T08:47:57.819Z,79.833984
2022-10-04T08:49:07.534Z,79.223633
2022-10-04T08:50:16.217Z,78.881836
2022-10-04T08:51:25.901Z,78.076172
2022-10-04T08:52:33.579Z,78.277588
2022-10-04T08:53:41.241Z,77.532959
2022-10-04T08:54:50.962Z,77.130127
2022-10-04T08:56:00.641Z,77.429199
2022-10-04T08:57:15.054Z,76.89209
2022-10-04T08:58:20.963Z,76.78833
2022-10-04T08:59:29.653Z,75.280762
2022-10-04T09:00:39.351Z,77.032471
2022-10-04T09:01:47.030Z,77.984619
2022-10-04T09:02:54.719Z,78.997803
2022-10-04T09:04:04.377Z,80.175781
2022-10-04T09:05:14.016Z,77.441406
2022-10-04T09:06:23.745Z,77.514648
2022-10-04T09:07:31.404Z,79.272461
2022-10-04T09:08:40.100Z,80.487061
2022-10-04T09:09:49.775Z,79.376221
2022-10-04T09:10:57.535Z,79.675293
2022-10-04T09:12:06.273Z,80.145264
2022-10-04T09:13:16.016Z,80.517578
2022-10-04T09:14:25.713Z,80.883789
2022-10-04T09:15:35.473Z,79.730225
2022-10-04T09:16:44.459Z,77.746582
2022-10-04T09:17:52.803Z,77.984619
2022-10-04T09:19:02.508Z,78.491211
2022-10-04T09:20:33.814Z,78.491211
2022-10-04T09:21:21.907Z,79.199219
2022-10-04T09:22:30.634Z,78.491211
2022-10-04T09:23:38.370Z,77.478027
2022-10-04T09:24:48.043Z,79.095459
2022-10-04T09:25:56.749Z,77.679443
2022-10-04T09:27:06.458Z,79.13208
2022-10-04T09:28:15.190Z,80.108643
2022-10-04T09:29:24.889Z,78.45459
2022-10-04T09:30:34.613Z,77.807617
2022-10-04T09:31:42.309Z,76.733398
2022-10-04T09:32:52.104Z,77.172852
2022-10-04T09:34:01.727Z,78.625488
2022-10-04T09:35:11.423Z,78.90625
2022-10-04T09:36:20.146Z,80.26123
2022-10-04T09:37:29.803Z,81.237793
2022-10-04T09:38:38.618Z,81.500244
2022-10-04T09:39:48.291Z,80.517578
2022-10-04T09:40:57.043Z,77.807617
2022-10-04T09:42:04.727Z,77.46582
2022-10-04T09:43:14.426Z,76.89209
2022-10-04T09:44:23.163Z,74.731445
2022-10-04T09:45:31.855Z,74.090576
2022-10-04T09:46:40.869Z,74.963379
2022-10-04T09:47:50.349Z,72.77832
2022-10-04T09:49:00.107Z,71.936035
2022-10-04T09:50:08.817Z,72.241211
2022-10-04T09:51:16.489Z,73.016357
2022-10-04T09:52:26.389Z,73.724365
2022-10-04T09:53:35.026Z,73.88916
2022-10-04T09:54:44.707Z,72.979736
2022-10-04T09:55:54.430Z,74.359131
2022-10-04T09:57:03.182Z,73.419189
2022-10-04T09:58:12.850Z,72.375488
2022-10-04T09:59:22.544Z,71.264648
2022-10-04T10:00:30.251Z,70.965576
2022-10-04T10:01:40.024Z,72.174072
2022-10-04T10:02:48.712Z,71.734619
2022-10-04T10:03:58.384Z,71.801758
2022-10-04T10:05:07.070Z,71.398926
2022-10-04T10:06:15.788Z,71.972656
2022-10-04T10:07:25.466Z,72.979736
2022-10-04T10:08:34.187Z,72.039795
2022-10-04T10:09:42.891Z,71.936035
2022-10-04T10:10:52.570Z,70.794678
2022-10-04T10:12:02.274Z,70.825195
2022-10-04T10:13:10.984Z,70.758057
2022-10-04T10:14:19.698Z,72.338867
2022-10-04T10:15:28.412Z,73.321533
2022-10-04T10:16:38.110Z,74.768066
2022-10-04T10:17:45.796Z,74.804688
2022-10-04T10:18:54.095Z,75.811768
2022-10-04T10:20:03.820Z,75.67749
2022-10-04T10:21:12.511Z,75.170898
2022-10-04T10:22:21.213Z,75.134277
2022-10-04T10:23:30.927Z,74.328613
2022-10-04T10:24:39.638Z,74.530029
2022-10-04T10:25:49.298Z,73.419189
2022-10-04T10:26:58.026Z,74.328613
2022-10-04T10:28:05.779Z,73.754883
2022-10-04T10:29:15.425Z,74.603271
2022-10-04T10:30:23.080Z,75.549316
2022-10-04T10:31:30.917Z,76.45874
2022-10-04T10:32:39.576Z,76.824951
2022-10-04T10:33:49.278Z,73.754883
2022-10-04T10:34:58.982Z,75.170898
2022-10-04T10:36:06.686Z,74.127197
2022-10-04T10:37:15.431Z,72.644043
2022-10-04T10:38:25.153Z,73.590088
2022-10-04T10:39:33.845Z,74.029541
2022-10-04T10:40:43.576Z,74.603271
2022-10-04T10:41:53.254Z,75.20752
2022-10-04T10:43:02.940Z,75.274658
2022-10-04T10:44:12.685Z,74.163818
2022-10-04T10:45:20.366Z,74.462891
2022-10-04T10:46:29.081Z,75.439453
2022-10-04T10:47:38.750Z,72.814941
2022-10-04T10:48:48.476Z,74.530029
2022-10-04T10:49:57.211Z,74.291992
2022-10-04T10:51:05.921Z,73.248291
2022-10-04T10:52:15.645Z,72.473145
2022-10-04T10:53:25.365Z,71.130371
2022-10-04T10:54:34.082Z,70.623779
2022-10-04T10:55:41.899Z,70.697021
2022-10-04T10:56:51.611Z,70.959473
2022-10-04T10:58:00.290Z,68.64624
2022-10-04T10:59:10.023Z,69.555664
2022-10-04T11:00:18.740Z,70.324707
2022-10-04T11:01:27.558Z,70.257568
2022-10-04T11:02:49.175Z,68.615723
2022-10-04T11:03:47.955Z,68.786621
2022-10-04T11:04:57.541Z,66.674805
2022-10-04T11:06:07.256Z,67.010498
2022-10-04T11:07:15.935Z,68.31665
2022-10-04T11:08:23.603Z,68.31665
2022-10-04T11:09:32.284Z,66.97998
2022-10-04T11:10:40.950Z,67.749023
2022-10-04T11:11:51.647Z,68.121338
2022-10-04T11:12:59.392Z,64.84375
2022-10-04T11:14:07.031Z,64.678955
2022-10-04T11:15:16.752Z,65.179443
2022-10-04T11:16:26.488Z,65.582275
2022-10-04T11:17:35.180Z,66.052246
2022-10-04T11:18:43.888Z,64.373779
2022-10-04T11:19:53.569Z,64.404297
2022-10-04T11:21:02.245Z,65.008545
2022-10-04T11:22:11.035Z,64.337158
2022-10-04T11:23:20.731Z,65.270996
2022-10-04T11:24:29.478Z,65.802002
2022-10-04T11:25:39.157Z,66.308594
2022-10-04T11:26:48.843Z,67.248535
2022-10-04T11:27:57.605Z,66.845703
2022-10-04T11:29:07.274Z,65.844727
2022-10-04T11:30:16.961Z,66.516113
2022-10-04T11:31:25.710Z,65.679932
2022-10-04T11:32:35.390Z,64.94751
2022-10-04T11:33:43.109Z,64.447021
2022-10-04T11:34:50.808Z,64.63623
2022-10-04T11:35:59.503Z,67.016602
2022-10-04T11:37:09.200Z,64.73999
2022-10-04T11:38:17.889Z,64.538574
2022-10-04T11:39:27.605Z,65.643311
2022-10-04T11:40:37.322Z,65.844727
2022-10-04T11:41:47.081Z,64.709473
2022-10-04T11:42:55.770Z,65.2771
2022-10-04T11:44:03.478Z,63.745117
2022-10-04T11:45:13.194Z,63.812256
2022-10-04T11:46:21.876Z,62.481689
2022-10-04T11:47:31.570Z,63.421631
2022-10-04T11:48:39.248Z,61.49292
2022-10-04T11:49:48.924Z,59.893799
2022-10-04T11:50:58.630Z,60.522461
2022-10-04T11:52:06.299Z,60.919189
2022-10-04T11:53:14.034Z,60.992432
2022-10-04T11:54:23.722Z,59.490967
2022-10-04T11:55:31.395Z,60.03418
2022-10-04T11:56:41.077Z,59.234619
2022-10-04T11:57:50.759Z,58.666992
2022-10-04T11:58:59.479Z,58.605957
2022-10-04T12:00:09.202Z,58.111572
2022-10-04T12:01:19.005Z,58.551025
2022-10-04T12:02:27.698Z,57.629395
2022-10-04T12:03:37.577Z,57.202148
2022-10-04T12:04:47.204Z,55.804443
2022-10-04T12:05:54.805Z,56.68335
2022-10-04T12:07:03.517Z,58.380127
2022-10-04T12:08:13.245Z,57.354736
2022-10-04T12:09:22.971Z,56.030273
2022-10-04T12:10:30.637Z,56.005859
2022-10-04T12:11:39.335Z,56.47583
2022-10-04T12:12:49.028Z,56.573486
2022-10-04T12:13:57.712Z,55.651855
2022-10-04T12:15:06.426Z,55.157471
2022-10-04T12:16:15.192Z,54.882812
2022-10-04T12:17:23.994Z,56.347656
2022-10-04T12:18:33.495Z,54.632568
2022-10-04T12:19:41.180Z,54.35791
2022-10-04T12:20:48.853Z,55.059814
2022-10-04T12:21:58.591Z,57.086182
2022-10-04T12:23:07.331Z,57.440186
2022-10-04T12:24:17.039Z,58.892822
2022-10-04T12:25:25.714Z,59.051514
2022-10-04T12:26:35.375Z,60.9375
2022-10-04T12:27:45.089Z,62.097168
2022-10-04T12:28:52.761Z,63.433838
2022-10-04T12:30:01.451Z,64.239502
2022-10-04T12:31:11.257Z,64.208984
2022-10-04T12:32:19.816Z,63.500977
2022-10-04T12:33:28.533Z,63.873291
2022-10-04T12:34:38.212Z,64.746094
2022-10-04T12:35:46.913Z,63.684082
2022-10-04T12:36:56.685Z,63.354492
2022-10-04T12:38:04.438Z,61.950684
2022-10-04T12:39:13.198Z,61.322021
2022-10-04T12:40:22.871Z,61.419678
2022-10-04T12:41:31.527Z,61.260986
2022-10-04T12:42:41.216Z,59.594727
2022-10-04T12:43:49.907Z,60.565186
2022-10-04T12:44:58.638Z,60.137939
2022-10-04T12:46:08.386Z,58.862305
2022-10-04T12:47:16.023Z,58.691406
2022-10-04T12:48:24.724Z,59.820557
2022-10-04T12:49:34.437Z,60.119629
2022-10-04T12:50:43.176Z,60.894775
2022-10-04T12:51:52.870Z,59.466553
2022-10-04T12:53:02.547Z,59.136963
2022-10-04T12:54:11.233Z,58.679199
2022-10-04T12:55:20.914Z,57.684326
2022-10-04T12:56:28.725Z,58.48999
2022-10-04T12:57:36.414Z,61.437988
2022-10-04T12:58:46.117Z,62.530518
2022-10-04T12:59:54.795Z,64.49585
2022-10-04T13:01:03.541Z,64.135742
2022-10-04T13:02:12.232Z,63.977051
2022-10-04T13:03:20.875Z,62.683105
2022-10-04T13:04:30.553Z,62.194824
2022-10-04T13:05:38.281Z,60.290527
2022-10-04T13:06:47.133Z,59.295654
2022-10-04T13:07:56.665Z,59.790039
2022-10-04T13:09:06.357Z,59.466553